Time;durP1;ratioP1;P1;durP2;ratioP2;P2;SDS_P1;SDS_P2;PMS_P1;PMS_P2;Temp;Humidity;BMP_temperature;BMP_pressure;BME280_temperature;BME280_humidity;BME280_pressure;Samples;Min_cycle;Max_cycle;Signal;HPM_P1;HPM_P2
2023/09/25 00:00:32;;;;;;;17.40;8.40;;;;;;;21.83;43.94;101102.67;108107;1288;22110;-59
2023/09/25 00:02:59;;;;;;;17.40;8.80;;;;;;;21.83;44.18;101104.60;108069;1277;21987;-67
2023/09/25 00:05:25;;;;;;;15.90;9.00;;;;;;;21.84;44.20;101103.88;108154;1280;22201;-58
2023/09/25 00:07:51;;;;;;;14.40;8.20;;;;;;;21.85;44.35;101102.23;108089;1288;21989;-67
2023/09/25 00:10:17;;;;;;;18.20;9.10;;;;;;;21.85;44.46;101099.19;108127;1277;21989;-59
2023/09/25 00:12:44;;;;;;;17.00;8.50;;;;;;;21.85;44.43;101096.16;108102;1288;21989;-59
2023/09/25 00:15:10;;;;;;;16.20;9.00;;;;;;;21.85;44.44;101096.48;108099;1288;21996;-60
2023/09/25 00:17:36;;;;;;;17.60;9.30;;;;;;;21.85;44.44;101097.02;108116;1276;21993;-59
2023/09/25 00:20:04;;;;;;;18.10;8.70;;;;;;;21.83;44.56;101101.38;108086;1283;21989;-68
2023/09/25 00:22:30;;;;;;;22.20;8.50;;;;;;;21.82;44.62;101100.71;108175;1286;22744;-60
2023/09/25 00:24:57;;;;;;;18.90;8.60;;;;;;;21.82;44.82;101101.83;108112;1288;21995;-68
2023/09/25 00:27:23;;;;;;;20.20;9.30;;;;;;;21.81;45.02;101099.71;108153;1288;22085;-59
2023/09/25 00:29:49;;;;;;;15.40;8.70;;;;;;;21.81;44.94;101099.71;108127;1283;21992;-60
2023/09/25 00:32:15;;;;;;;18.10;9.50;;;;;;;21.81;45.05;101096.66;108117;1277;21989;-59
2023/09/25 00:34:40;;;;;;;15.70;10.00;;;;;;;21.81;45.31;101097.02;108131;1280;21992;-59
2023/09/25 00:37:07;;;;;;;18.60;10.50;;;;;;;21.80;45.56;101096.92;108096;1280;21995;-69
2023/09/25 00:39:33;;;;;;;23.30;10.60;;;;;;;21.76;45.78;101097.06;108098;1282;22002;-68
2023/09/25 00:41:59;;;;;;;22.00;10.50;;;;;;;21.74;45.97;101095.95;108071;1283;24341;-68
2023/09/25 00:44:25;;;;;;;20.40;10.10;;;;;;;21.73;46.17;101098.15;108134;1287;22000;-61
2023/09/25 00:46:51;;;;;;;15.60;10.00;;;;;;;21.73;46.18;101096.91;108089;1288;22010;-68
2023/09/25 00:49:16;;;;;;;15.80;9.90;;;;;;;21.72;46.28;101098.36;107650;1286;22028;-68
2023/09/25 00:51:42;;;;;;;21.30;10.50;;;;;;;21.72;46.31;101098.88;108141;1283;22002;-59
2023/09/25 00:54:07;;;;;;;21.50;10.00;;;;;;;21.72;46.46;101093.87;107661;1281;21989;-58
2023/09/25 00:56:33;;;;;;;18.40;10.60;;;;;;;21.73;46.60;101091.71;108101;1280;21990;-68
2023/09/25 00:58:59;;;;;;;17.50;10.40;;;;;;;21.71;46.74;101091.64;107873;1283;21997;-70
2023/09/25 01:01:25;;;;;;;21.50;10.60;;;;;;;21.69;46.72;101090.27;108074;1284;21986;-60
2023/09/25 01:03:51;;;;;;;23.70;11.10;;;;;;;21.68;46.83;101089.96;107836;1288;21996;-59
2023/09/25 01:06:17;;;;;;;16.50;10.30;;;;;;;21.68;46.85;101090.49;108093;1283;21989;-68
2023/09/25 01:08:43;;;;;;;19.90;10.90;;;;;;;21.68;46.76;101088.73;107909;1288;21993;-68
2023/09/25 01:11:09;;;;;;;21.90;10.60;;;;;;;21.66;46.80;101092.21;108108;1283;21993;-59
2023/09/25 01:13:35;;;;;;;19.10;11.30;;;;;;;21.64;47.01;101093.21;108105;1288;21995;-59
2023/09/25 01:16:03;;;;;;;18.70;10.20;;;;;;;21.61;46.83;101093.70;108090;1286;22450;-58
2023/09/25 01:18:28;;;;;;;18.70;9.50;;;;;;;21.58;46.67;101094.16;107908;1279;22101;-69
2023/09/25 01:20:54;;;;;;;16.70;9.20;;;;;;;21.55;46.70;101095.02;108122;1286;21988;-58
2023/09/25 01:23:19;;;;;;;21.80;9.30;;;;;;;21.52;46.80;101095.67;108142;1288;21995;-69
2023/09/25 01:25:45;;;;;;;15.40;9.50;;;;;;;21.50;46.88;101096.87;108114;1283;21994;-69
2023/09/25 01:28:10;;;;;;;18.90;8.50;;;;;;;21.47;47.00;101101.11;108091;1286;21991;-59
2023/09/25 01:30:36;;;;;;;16.60;9.30;;;;;;;21.46;46.94;101100.09;108103;1284;21990;-58
2023/09/25 01:33:02;;;;;;;18.40;9.40;;;;;;;21.44;46.88;101099.28;108103;1283;21986;-59
2023/09/25 01:35:28;;;;;;;19.10;9.40;;;;;;;21.44;46.95;101101.24;108131;1288;22000;-68
2023/09/25 01:37:58;;;;;;;17.30;8.80;;;;;;;21.43;46.75;101101.29;108115;1281;21990;-64
2023/09/25 01:40:24;;;;;;;16.10;8.70;;;;;;;21.41;46.71;101099.40;108126;1277;22008;-59
2023/09/25 01:42:50;;;;;;;77.30;11.80;;;;;;;21.39;46.51;101097.74;108109;1283;22001;-59
2023/09/25 01:45:17;;;;;;;30.30;10.70;;;;;;;21.35;46.58;101099.86;108094;1288;21995;-59
2023/09/25 01:47:50;;;;;;;17.50;8.70;;;;;;;21.31;46.60;101101.84;108103;1288;21999;-59
2023/09/25 01:50:23;;;;;;;19.30;9.00;;;;;;;21.28;46.44;101102.49;108127;1288;22006;-67
2023/09/25 01:52:54;;;;;;;19.90;9.10;;;;;;;21.24;46.48;101103.19;108081;1283;22473;-58
2023/09/25 01:55:19;;;;;;;17.00;9.20;;;;;;;21.20;46.44;101099.98;108086;1288;22157;-62
2023/09/25 01:57:45;;;;;;;17.40;8.20;;;;;;;21.17;46.45;101099.42;108085;1284;21994;-69
2023/09/25 02:00:12;;;;;;;17.00;8.50;;;;;;;21.15;46.48;101104.69;108150;1288;22095;-68
2023/09/25 02:02:38;;;;;;;14.30;8.50;;;;;;;21.13;46.58;101103.92;108143;1284;24401;-58
2023/09/25 02:05:05;;;;;;;20.20;8.60;;;;;;;21.10;46.49;101103.49;108132;1288;22000;-68
2023/09/25 02:07:32;;;;;;;17.90;8.60;;;;;;;21.07;46.70;101102.21;108145;1277;22001;-58
2023/09/25 02:09:58;;;;;;;14.70;8.20;;;;;;;21.04;46.80;101101.27;108125;1283;21990;-68
2023/09/25 02:12:23;;;;;;;16.90;9.10;;;;;;;21.01;46.69;101102.10;108092;1288;22002;-59
2023/09/25 02:14:50;;;;;;;19.80;9.10;;;;;;;20.99;46.75;101103.25;108081;1287;21990;-59
2023/09/25 02:17:16;;;;;;;22.90;9.10;;;;;;;20.96;46.66;101103.75;108090;1288;21990;-59
2023/09/25 02:19:41;;;;;;;18.40;8.30;;;;;;;20.94;46.68;101107.43;108099;1283;21988;-59
2023/09/25 02:22:07;;;;;;;18.40;8.60;;;;;;;20.92;46.76;101108.05;108122;1283;23755;-58
2023/09/25 02:24:37;;;;;;;18.20;8.90;;;;;;;20.90;46.75;101107.38;108097;1280;21994;-58
2023/09/25 02:27:02;;;;;;;20.90;8.40;;;;;;;20.89;46.71;101111.00;108114;1288;21983;-69
2023/09/25 02:29:29;;;;;;;16.20;7.90;;;;;;;20.88;46.79;101116.59;108130;1281;22148;-58
2023/09/25 02:31:54;;;;;;;13.90;8.00;;;;;;;20.87;46.85;101116.45;108130;1288;22001;-59
2023/09/25 02:34:20;;;;;;;14.50;7.70;;;;;;;20.86;46.83;101121.13;108156;1280;22014;-59
2023/09/25 02:36:46;;;;;;;16.30;8.30;;;;;;;20.83;46.82;101122.70;108066;1283;22014;-60
2023/09/25 02:39:13;;;;;;;13.40;7.80;;;;;;;20.81;46.83;101122.96;108061;1283;21991;-59
2023/09/25 02:41:39;;;;;;;14.10;8.60;;;;;;;20.77;46.73;101119.01;108099;1277;22185;-58
2023/09/25 02:44:05;;;;;;;14.50;7.70;;;;;;;20.73;46.71;101118.98;108058;1280;22093;-68
2023/09/25 02:46:31;;;;;;;16.50;8.00;;;;;;;20.72;46.67;101120.48;108094;1287;21986;-68
2023/09/25 02:48:56;;;;;;;13.80;8.20;;;;;;;20.70;46.74;101119.48;108189;1280;21990;-58
2023/09/25 02:51:22;;;;;;;19.10;8.00;;;;;;;20.69;46.77;101120.40;108066;1288;21996;-69
2023/09/25 02:53:48;;;;;;;14.20;6.80;;;;;;;20.69;46.72;101125.04;108081;1288;22001;-57
2023/09/25 02:56:13;;;;;;;16.80;7.90;;;;;;;20.70;46.63;101129.64;108104;1283;22030;-68
2023/09/25 02:58:39;;;;;;;15.60;7.30;;;;;;;20.69;46.60;101126.98;108094;1283;22002;-59
2023/09/25 03:01:04;;;;;;;14.30;7.20;;;;;;;20.69;46.61;101124.52;108114;1283;21989;-58
2023/09/25 03:03:30;;;;;;;13.50;7.40;;;;;;;20.69;46.58;101125.74;108073;1283;21990;-57
2023/09/25 03:05:55;;;;;;;16.90;7.50;;;;;;;20.69;46.50;101126.12;108079;1276;21991;-67
2023/09/25 03:08:21;;;;;;;20.30;7.20;;;;;;;20.68;46.44;101126.86;108077;1283;21989;-57
2023/09/25 03:10:47;;;;;;;15.30;7.40;;;;;;;20.68;46.39;101131.23;108052;1281;21989;-67
2023/09/25 03:13:12;;;;;;;17.70;7.20;;;;;;;20.65;46.42;101129.85;108079;1280;22154;-67
2023/09/25 03:15:38;;;;;;;17.60;7.40;;;;;;;20.64;46.41;101130.41;108059;1286;21998;-58
2023/09/25 03:18:04;;;;;;;15.10;7.30;;;;;;;20.63;46.27;101131.88;107828;1280;21990;-57
2023/09/25 03:20:30;;;;;;;13.40;7.20;;;;;;;20.62;46.34;101134.24;107978;1282;21996;-58
2023/09/25 03:22:56;;;;;;;14.00;7.60;;;;;;;20.61;46.29;101138.19;108017;1283;21993;-68
2023/09/25 03:25:23;;;;;;;11.00;6.90;;;;;;;20.61;46.30;101138.23;108012;1288;21992;-58
2023/09/25 03:27:49;;;;;;;13.80;6.90;;;;;;;20.60;46.30;101139.67;107973;1280;22072;-58
2023/09/25 03:30:15;;;;;;;14.70;7.20;;;;;;;20.60;46.23;101145.54;107976;1288;21987;-67
2023/09/25 03:32:42;;;;;;;13.40;7.20;;;;;;;20.59;46.13;101147.55;108097;1283;22017;-58
2023/09/25 03:35:08;;;;;;;17.20;7.20;;;;;;;20.58;46.12;101154.73;108069;1287;22055;-68
2023/09/25 03:37:34;;;;;;;15.30;7.40;;;;;;;20.57;46.04;101155.34;107993;1279;21998;-58
2023/09/25 03:39:59;;;;;;;20.70;8.00;;;;;;;20.55;45.92;101156.30;107980;1283;21995;-57
2023/09/25 03:42:25;;;;;;;14.00;7.20;;;;;;;20.53;45.96;101156.41;108008;1282;22003;-58
2023/09/25 03:44:51;;;;;;;21.00;8.10;;;;;;;20.49;45.90;101156.17;107993;1287;21990;-67
2023/09/25 03:47:18;;;;;;;17.20;7.20;;;;;;;20.46;45.91;101160.92;108029;1280;21990;-68
2023/09/25 03:49:44;;;;;;;17.10;7.60;;;;;;;20.44;45.91;101162.46;108005;1280;21993;-58
2023/09/25 03:52:10;;;;;;;23.20;7.50;;;;;;;20.40;46.03;101167.08;108078;1279;21999;-66
2023/09/25 03:54:36;;;;;;;12.30;6.50;;;;;;;20.38;46.06;101171.08;108016;1288;22064;-68
2023/09/25 03:57:01;;;;;;;17.80;6.90;;;;;;;20.36;46.06;101174.16;107993;1288;22454;-69
2023/09/25 03:59:27;;;;;;;18.50;6.90;;;;;;;20.37;46.19;101174.49;107919;1288;21982;-68
2023/09/25 04:01:52;;;;;;;16.70;6.90;;;;;;;20.38;46.12;101176.59;107948;1280;21992;-68
2023/09/25 04:04:18;;;;;;;17.00;6.70;;;;;;;20.39;46.21;101180.30;108041;1288;21990;-69
2023/09/25 04:06:44;;;;;;;15.60;6.60;;;;;;;20.41;46.23;101180.42;108011;1288;22013;-68
2023/09/25 04:09:10;;;;;;;14.70;7.70;;;;;;;20.43;46.16;101182.11;108013;1283;21997;-59
2023/09/25 04:11:35;;;;;;;15.00;7.20;;;;;;;20.46;46.27;101184.30;108090;1279;21964;-59
2023/09/25 04:14:01;;;;;;;25.20;8.80;;;;;;;20.48;46.26;101182.41;108064;1286;22003;-59
2023/09/25 04:16:33;;;;;;;29.50;8.40;;;;;;;20.52;46.29;101188.52;108005;1283;21989;-59
2023/09/25 04:18:59;;;;;;;14.90;6.70;;;;;;;20.56;46.41;101192.98;108063;1283;22003;-59
2023/09/25 04:21:24;;;;;;;15.90;7.50;;;;;;;20.60;46.41;101193.52;108160;1283;21998;-68
2023/09/25 04:23:50;;;;;;;15.80;7.00;;;;;;;20.64;46.37;101196.73;108082;1288;22027;-59
2023/09/25 04:26:16;;;;;;;19.80;7.90;;;;;;;20.70;46.55;101196.16;108132;1288;22004;-69
2023/09/25 04:28:42;;;;;;;12.60;6.30;;;;;;;20.75;46.44;101197.73;108098;1286;21991;-60
2023/09/25 04:31:08;;;;;;;14.50;5.90;;;;;;;20.80;46.58;101198.23;108139;1287;22502;-68
2023/09/25 04:33:35;;;;;;;15.40;6.80;;;;;;;20.86;46.54;101203.35;108109;1283;22001;-68
2023/09/25 04:36:01;;;;;;;14.20;6.90;;;;;;;20.92;46.58;101203.84;108128;1277;21986;-68
2023/09/25 04:38:27;;;;;;;17.80;7.40;;;;;;;20.97;46.61;101202.89;108201;1288;21986;-59
2023/09/25 04:40:54;;;;;;;17.30;6.80;;;;;;;21.03;46.71;101205.50;108101;1288;22001;-60
2023/09/25 04:43:21;;;;;;;14.50;6.80;;;;;;;21.09;46.56;101207.91;108114;1280;21999;-59
2023/09/25 04:45:47;;;;;;;21.20;7.10;;;;;;;21.15;46.58;101208.36;108117;1276;21996;-69
2023/09/25 04:48:13;;;;;;;15.90;6.60;;;;;;;21.21;46.43;101209.50;108102;1280;21989;-69
2023/09/25 04:50:40;;;;;;;16.30;6.20;;;;;;;21.28;46.49;101211.74;108052;1287;21992;-59
2023/09/25 04:53:09;;;;;;;11.50;5.60;;;;;;;21.35;46.43;101214.28;108102;1288;21993;-68
2023/09/25 04:55:36;;;;;;;9.00;5.70;;;;;;;21.43;46.39;101217.52;108129;1287;21995;-69
2023/09/25 04:58:02;;;;;;;15.00;6.30;;;;;;;21.50;46.34;101216.30;108024;1283;22006;-69
2023/09/25 05:00:28;;;;;;;15.60;5.60;;;;;;;21.58;46.33;101214.89;107987;1283;22102;-58
2023/09/25 05:02:54;;;;;;;21.40;6.10;;;;;;;21.68;46.45;101215.35;108018;1277;21990;-68
2023/09/25 05:05:20;;;;;;;15.60;5.80;;;;;;;21.78;46.37;101214.55;108106;1286;22222;-69
2023/09/25 05:07:49;;;;;;;14.70;5.70;;;;;;;21.88;46.29;101214.94;108117;1287;22926;-58
2023/09/25 05:10:17;;;;;;;13.40;6.10;;;;;;;21.99;46.31;101214.66;108152;1288;22006;-58
2023/09/25 05:12:43;;;;;;;12.20;6.00;;;;;;;22.09;46.28;101218.05;108163;1287;21994;-68
2023/09/25 05:15:10;;;;;;;13.70;6.50;;;;;;;22.21;46.28;101211.25;108163;1288;21989;-68
2023/09/25 05:17:39;;;;;;;15.10;6.90;;;;;;;22.33;46.22;101211.75;108131;1284;22046;-58
2023/09/25 05:20:10;;;;;;;13.00;6.00;;;;;;;22.47;46.31;101216.68;108142;1283;22053;-68
2023/09/25 05:22:39;;;;;;;12.10;5.70;;;;;;;22.60;46.24;101219.60;108091;1286;21990;-59
2023/09/25 05:25:07;;;;;;;16.30;5.90;;;;;;;22.74;46.13;101222.30;108124;1286;22022;-68
2023/09/25 05:27:34;;;;;;;14.70;6.00;;;;;;;22.88;45.90;101223.61;108099;1288;21987;-68
2023/09/25 05:30:01;;;;;;;15.40;6.20;;;;;;;23.00;45.62;101227.25;108150;1283;21992;-65
2023/09/25 05:32:26;;;;;;;21.80;5.60;;;;;;;23.12;45.75;101222.73;108099;1276;21992;-67
2023/09/25 05:34:52;;;;;;;15.10;5.60;;;;;;;23.25;45.55;101223.33;108086;1275;22083;-67
2023/09/25 05:37:18;;;;;;;15.90;6.00;;;;;;;23.39;45.09;101221.71;108141;1277;22083;-58
2023/09/25 05:39:44;;;;;;;12.20;6.10;;;;;;;23.52;45.08;101222.82;108099;1288;21995;-65
2023/09/25 05:42:09;;;;;;;15.30;6.00;;;;;;;23.65;44.77;101223.41;108108;1286;21982;-66
2023/09/25 05:44:35;;;;;;;10.60;5.50;;;;;;;23.79;44.46;101225.31;108101;1276;21998;-58
2023/09/25 05:47:01;;;;;;;11.10;5.90;;;;;;;23.92;44.22;101227.29;108085;1280;22465;-58
2023/09/25 05:49:26;;;;;;;13.40;5.80;;;;;;;24.07;43.99;101233.15;108109;1287;21999;-58
2023/09/25 05:51:53;;;;;;;15.80;5.20;;;;;;;24.22;43.96;101229.81;108105;1280;22000;-66
2023/09/25 05:54:20;;;;;;;16.10;5.70;;;;;;;24.39;43.70;101231.05;108144;1283;22002;-67
2023/09/25 05:56:47;;;;;;;9.00;5.10;;;;;;;24.52;43.45;101228.83;108099;1280;23615;-66
2023/09/25 05:59:13;;;;;;;11.40;5.00;;;;;;;24.67;43.28;101229.79;108136;1283;23680;-58
2023/09/25 06:01:39;;;;;;;11.40;4.50;;;;;;;24.82;43.12;101231.43;108097;1283;22040;-59
2023/09/25 06:04:05;;;;;;;9.80;4.20;;;;;;;25.02;43.01;101231.16;108123;1280;21992;-58
2023/09/25 06:06:33;;;;;;;12.00;5.40;;;;;;;25.25;42.73;101232.70;108126;1277;21995;-66
2023/09/25 06:08:59;;;;;;;12.80;4.40;;;;;;;25.49;42.58;101235.01;108144;1283;21986;-58
2023/09/25 06:11:25;;;;;;;11.80;5.10;;;;;;;25.74;42.37;101237.95;108081;1277;21990;-67
2023/09/25 06:13:50;;;;;;;10.90;5.10;;;;;;;25.96;42.14;101240.35;108111;1277;21980;-58
2023/09/25 06:16:16;;;;;;;12.10;4.50;;;;;;;26.19;41.86;101244.34;108133;1287;21991;-58
2023/09/25 06:18:42;;;;;;;14.10;4.40;;;;;;;26.42;41.31;101251.49;108104;1280;21994;-58
2023/09/25 06:21:10;;;;;;;12.20;4.80;;;;;;;26.61;41.03;101254.04;108167;1288;22000;-59
2023/09/25 06:23:36;;;;;;;8.90;4.20;;;;;;;26.76;40.61;101253.71;108109;1283;21991;-67
2023/09/25 06:26:02;;;;;;;10.50;4.60;;;;;;;26.92;40.34;101252.55;108166;1283;22004;-59
2023/09/25 06:28:29;;;;;;;7.90;3.70;;;;;;;27.06;40.11;101254.27;108124;1280;21990;-60
2023/09/25 06:30:55;;;;;;;11.30;4.50;;;;;;;27.20;39.86;101253.31;108145;1278;22000;-65
2023/09/25 06:33:21;;;;;;;12.00;4.90;;;;;;;27.36;39.53;101255.13;108090;1288;21987;-59
2023/09/25 06:35:47;;;;;;;14.80;4.40;;;;;;;27.54;39.46;101248.69;108090;1277;21990;-65
2023/09/25 06:38:12;;;;;;;19.70;4.30;;;;;;;27.76;39.00;101248.54;108104;1280;21955;-58
2023/09/25 06:40:47;;;;;;;15.60;4.30;;;;;;;27.95;38.74;101249.02;108161;1283;21995;-65
2023/09/25 06:43:13;;;;;;;7.60;4.30;;;;;;;28.16;38.51;101250.77;108119;1283;21991;-58
2023/09/25 06:45:39;;;;;;;17.10;4.10;;;;;;;28.32;38.19;101256.60;108064;1286;21997;-59
2023/09/25 06:48:05;;;;;;;14.10;4.50;;;;;;;28.50;38.14;101253.19;108105;1288;21996;-64
2023/09/25 06:50:31;;;;;;;10.30;4.90;;;;;;;28.72;38.10;101255.84;108111;1283;22169;-67
2023/09/25 06:52:57;;;;;;;14.90;4.60;;;;;;;28.95;37.67;101257.24;107855;1283;21987;-59
2023/09/25 06:55:23;;;;;;;10.70;3.80;;;;;;;29.17;37.51;101258.79;108219;1288;22026;-66
2023/09/25 06:57:49;;;;;;;14.10;4.80;;;;;;;29.40;37.33;101262.50;108091;1277;22085;-58
2023/09/25 07:00:15;;;;;;;13.60;4.00;;;;;;;29.61;36.99;101261.73;108111;1288;22000;-58
2023/09/25 07:02:40;;;;;;;9.80;4.00;;;;;;;29.77;36.67;101268.61;108100;1283;22008;-65
2023/09/25 07:05:06;;;;;;;11.70;4.00;;;;;;;29.98;36.56;101264.48;108083;1283;21984;-67
2023/09/25 07:07:32;;;;;;;12.10;4.50;;;;;;;30.24;36.37;101263.59;108160;1288;21992;-67
2023/09/25 07:09:58;;;;;;;8.10;3.90;;;;;;;30.53;36.24;101267.05;108112;1283;21994;-56
2023/09/25 07:12:24;;;;;;;10.50;3.90;;;;;;;30.80;35.93;101267.39;108073;1283;21994;-69
2023/09/25 07:14:55;;;;;;;17.90;4.90;;;;;;;31.03;35.67;101268.13;108073;1283;21997;-71
2023/09/25 07:17:22;;;;;;;9.70;3.80;;;;;;;31.25;35.46;101268.45;108108;1287;21997;-69
2023/09/25 07:19:51;;;;;;;10.40;4.10;;;;;;;31.48;35.29;101271.71;108089;1280;21995;-57
2023/09/25 07:22:18;;;;;;;18.00;4.10;;;;;;;31.72;35.14;101270.25;108203;1287;21991;-68
2023/09/25 07:24:43;;;;;;;8.40;4.20;;;;;;;31.94;35.03;101269.02;108196;1287;22911;-58
2023/09/25 07:27:09;;;;;;;9.50;4.40;;;;;;;32.16;34.81;101272.15;108126;1288;22031;-57
2023/09/25 07:29:36;;;;;;;10.50;4.50;;;;;;;32.38;34.59;101271.08;108139;1276;22023;-69
2023/09/25 07:32:03;;;;;;;14.70;3.70;;;;;;;32.65;34.35;101275.04;107865;1287;21992;-67
2023/09/25 07:34:31;;;;;;;12.50;4.30;;;;;;;32.89;33.96;101269.60;108127;1283;22019;-57
2023/09/25 07:36:57;;;;;;;10.00;4.40;;;;;;;33.07;33.69;101268.58;108124;1288;21996;-66
2023/09/25 07:39:23;;;;;;;10.30;3.50;;;;;;;33.25;33.61;101270.70;108132;1288;22029;-67
2023/09/25 07:41:50;;;;;;;13.40;4.30;;;;;;;33.46;33.38;101275.00;108085;1277;21990;-59
2023/09/25 07:44:16;;;;;;;9.30;4.20;;;;;;;33.65;33.17;101275.17;108138;1283;21999;-67
2023/09/25 07:46:43;;;;;;;8.60;3.70;;;;;;;33.86;32.91;101273.16;108019;1286;22053;-59
2023/09/25 07:49:09;;;;;;;7.80;3.70;;;;;;;34.07;32.47;101274.19;108124;1280;21987;-59
2023/09/25 07:51:36;;;;;;;12.50;4.00;;;;;;;34.26;32.16;101267.77;108109;1283;21959;-59
2023/09/25 07:54:03;;;;;;;11.00;3.50;;;;;;;34.49;32.14;101264.80;108099;1288;22025;-59
2023/09/25 07:56:30;;;;;;;11.10;3.10;;;;;;;34.74;32.01;101266.14;108146;1287;21995;-58
2023/09/25 07:58:56;;;;;;;10.30;2.80;;;;;;;34.97;31.50;101269.27;108199;1279;21995;-66
2023/09/25 08:01:22;;;;;;;7.20;2.90;;;;;;;35.16;31.07;101267.99;108862;1287;21987;-60
2023/09/25 08:03:51;;;;;;;7.40;2.60;;;;;;;35.34;30.88;101266.71;108029;1283;22009;-67
2023/09/25 08:06:19;;;;;;;10.30;3.10;;;;;;;35.50;30.88;101269.48;108117;1288;21987;-67
2023/09/25 08:08:45;;;;;;;10.50;2.50;;;;;;;35.66;30.68;101269.64;108161;1283;22487;-59
2023/09/25 08:11:14;;;;;;;8.20;3.10;;;;;;;35.79;30.24;101270.69;108098;1283;21995;-66
2023/09/25 08:13:41;;;;;;;9.70;3.00;;;;;;;35.92;30.14;101264.04;108047;1288;21981;-68
2023/09/25 08:16:06;;;;;;;8.60;2.70;;;;;;;36.05;29.94;101258.23;108124;1280;22077;-67
2023/09/25 08:18:32;;;;;;;6.40;2.90;;;;;;;36.19;29.63;101260.05;108114;1288;22000;-59
2023/09/25 08:20:59;;;;;;;13.20;2.90;;;;;;;36.32;29.40;101261.35;108086;1280;21989;-67
2023/09/25 08:23:25;;;;;;;10.50;2.90;;;;;;;36.44;29.36;101256.28;108101;1287;21993;-66
2023/09/25 08:25:50;;;;;;;9.00;2.60;;;;;;;36.55;29.16;101252.29;108092;1288;21960;-64
2023/09/25 08:28:16;;;;;;;7.90;2.20;;;;;;;36.68;28.88;101252.36;108115;1286;21998;-59
2023/09/25 08:30:41;;;;;;;9.20;3.80;;;;;;;36.76;28.65;101252.61;108044;1283;21994;-66
2023/09/25 08:33:07;;;;;;;7.20;3.00;;;;;;;36.81;28.64;101249.45;108041;1288;21985;-66
2023/09/25 08:35:33;;;;;;;7.30;2.50;;;;;;;36.89;28.39;101242.41;108107;1286;21982;-67
2023/09/25 08:37:59;;;;;;;8.10;2.40;;;;;;;36.97;28.39;101241.31;108157;1280;22000;-66
2023/09/25 08:40:25;;;;;;;6.60;2.90;;;;;;;37.07;28.28;101237.80;108133;1287;22232;-60
2023/09/25 08:42:51;;;;;;;9.30;2.50;;;;;;;37.22;28.15;101235.58;108078;1288;21997;-66
2023/09/25 08:45:17;;;;;;;4.70;2.50;;;;;;;37.43;27.94;101240.21;108085;1283;22300;-65
2023/09/25 08:47:42;;;;;;;4.80;2.30;;;;;;;37.63;27.55;101237.98;107834;1287;21993;-64
2023/09/25 08:50:09;;;;;;;4.70;2.30;;;;;;;37.78;27.29;101236.19;107867;1287;21951;-59
2023/09/25 08:52:35;;;;;;;8.30;2.20;;;;;;;37.89;27.28;101232.00;108094;1287;22028;-63
2023/09/25 08:55:01;;;;;;;6.20;2.30;;;;;;;38.02;26.97;101228.92;108062;1288;21991;-65
2023/09/25 08:57:26;;;;;;;3.50;2.40;;;;;;;38.17;26.92;101225.83;108117;1278;22004;-64
2023/09/25 08:59:52;;;;;;;6.40;2.20;;;;;;;38.33;26.82;101225.80;108062;1288;22000;-65
2023/09/25 09:02:18;;;;;;;5.00;2.10;;;;;;;38.49;26.61;101223.33;108139;1287;22452;-64
2023/09/25 09:04:44;;;;;;;7.90;2.30;;;;;;;38.65;26.55;101227.06;108095;1288;21995;-60
2023/09/25 09:07:10;;;;;;;7.10;2.20;;;;;;;38.78;26.45;101228.39;108121;1288;21983;-59
2023/09/25 09:09:36;;;;;;;5.80;2.50;;;;;;;38.91;26.26;101225.65;108678;1288;21983;-65
2023/09/25 09:12:03;;;;;;;12.30;2.80;;;;;;;39.03;25.98;101224.79;108137;1286;21990;-65
2023/09/25 09:14:43;;;;;;;121.90;4.90;;;;;;;39.13;25.72;101222.58;107840;1288;23729;-59
2023/09/25 09:17:12;;;;;;;6.90;2.40;;;;;;;39.24;25.63;101218.55;108155;1287;21987;-66
2023/09/25 09:19:44;;;;;;;5.70;2.50;;;;;;;39.34;25.45;101219.66;108124;1280;21990;-65
2023/09/25 09:22:09;;;;;;;9.10;2.80;;;;;;;39.45;25.32;101223.34;108092;1287;21984;-61
2023/09/25 09:24:39;;;;;;;13.30;2.90;;;;;;;39.54;25.19;101221.13;108104;1283;22033;-60
2023/09/25 09:27:07;;;;;;;6.80;3.50;;;;;;;39.62;24.89;101225.63;108180;1276;21990;-66
2023/09/25 09:29:37;;;;;;;5.60;2.90;;;;;;;39.67;24.81;101225.16;108129;1287;22051;-59
2023/09/25 09:32:03;;;;;;;13.00;3.10;;;;;;;39.68;24.66;101227.64;108091;1287;21997;-59
2023/09/25 09:34:29;;;;;;;8.60;2.90;;;;;;;39.69;24.44;101228.45;108074;1288;22003;-67
2023/09/25 09:36:54;;;;;;;7.40;3.40;;;;;;;39.71;24.52;101229.63;108093;1288;21999;-68
2023/09/25 09:39:22;;;;;;;9.60;3.40;;;;;;;39.73;24.23;101221.17;108109;1288;23059;-68
2023/09/25 09:41:53;;;;;;;9.30;3.60;;;;;;;39.78;24.37;101226.25;108120;1287;22171;-68
2023/09/25 09:44:19;;;;;;;10.30;2.80;;;;;;;39.83;24.07;101221.14;108107;1286;22000;-59
2023/09/25 09:46:46;;;;;;;12.70;3.20;;;;;;;39.88;24.07;101218.92;108071;1288;22000;-67
2023/09/25 09:49:14;;;;;;;8.00;2.60;;;;;;;39.95;24.16;101219.73;108178;1287;22112;-66
2023/09/25 09:51:41;;;;;;;6.40;2.50;;;;;;;40.05;23.91;101220.89;108141;1288;21992;-66
2023/09/25 09:54:07;;;;;;;6.40;2.80;;;;;;;40.13;23.84;101222.48;108060;1282;21988;-65
2023/09/25 09:56:33;;;;;;;7.40;2.90;;;;;;;40.21;23.59;101219.56;107779;1288;21988;-66
2023/09/25 09:58:59;;;;;;;10.70;2.90;;;;;;;40.30;23.70;101217.04;109951;1288;22386;-60
2023/09/25 10:01:24;;;;;;;7.50;3.00;;;;;;;40.37;23.68;101213.13;109779;1285;21992;-66
2023/09/25 10:03:50;;;;;;;5.00;3.20;;;;;;;40.48;23.21;101212.50;107809;1288;21986;-65
2023/09/25 10:06:15;;;;;;;10.50;3.20;;;;;;;40.57;23.23;101214.71;107870;1288;22018;-66
2023/09/25 10:09:10;;;;;;;7.20;3.60;;;;;;;40.66;23.36;101214.16;107840;1279;21990;-64
2023/09/25 10:11:35;;;;;;;6.00;3.70;;;;;;;40.74;23.03;101211.79;108215;1281;21987;-61
2023/09/25 10:14:03;;;;;;;7.40;3.10;;;;;;;40.80;22.93;101210.55;108164;1281;22006;-65
2023/09/25 10:16:30;;;;;;;8.10;4.00;;;;;;;40.85;22.70;101211.15;108166;1283;21999;-59
2023/09/25 10:18:56;;;;;;;9.70;4.80;;;;;;;40.92;22.83;101214.30;108129;1288;21994;-66
2023/09/25 10:21:22;;;;;;;7.00;3.40;;;;;;;41.00;22.66;101205.37;107935;1288;21999;-66
2023/09/25 10:23:49;;;;;;;9.50;3.30;;;;;;;41.06;22.72;101203.45;108134;1280;22007;-66
2023/09/25 10:26:19;;;;;;;11.50;3.50;;;;;;;41.12;22.63;101204.22;108086;1288;21999;-60
2023/09/25 10:28:45;;;;;;;7.40;3.10;;;;;;;41.15;22.44;101200.61;108129;1288;22016;-64
2023/09/25 10:31:21;;;;;;;10.90;3.60;;;;;;;41.13;22.30;101195.68;107914;1286;21991;-65
2023/09/25 10:33:59;;;;;;;11.00;2.90;;;;;;;40.98;21.77;101193.84;108096;1288;21998;-65
2023/09/25 10:36:39;;;;;;;10.70;3.60;;;;;;;40.83;22.15;101192.80;108060;1277;21988;-60
2023/09/25 10:39:06;;;;;;;9.40;3.30;;;;;;;40.81;22.08;101186.71;108046;1288;21989;-66
2023/09/25 10:41:32;;;;;;;7.30;3.50;;;;;;;40.81;21.88;101185.32;108097;1288;21993;-59
2023/09/25 10:43:58;;;;;;;7.40;3.30;;;;;;;40.82;22.03;101184.56;107759;1288;22054;-59
2023/09/25 10:46:23;;;;;;;17.00;4.00;;;;;;;40.80;21.92;101172.58;107656;1282;21995;-67
2023/09/25 10:48:49;;;;;;;13.60;3.20;;;;;;;40.77;21.80;101176.51;108102;1283;21988;-59
2023/09/25 10:51:15;;;;;;;8.60;3.00;;;;;;;40.76;21.65;101172.72;108102;1288;22005;-58
2023/09/25 10:53:43;;;;;;;12.40;3.10;;;;;;;40.76;21.55;101173.01;108157;1286;22303;-58
2023/09/25 10:56:11;;;;;;;10.20;2.80;;;;;;;40.71;21.60;101179.55;108128;1288;21995;-59
2023/09/25 10:58:37;;;;;;;8.20;3.00;;;;;;;40.74;21.57;101168.58;108131;1283;21992;-66
2023/09/25 11:01:04;;;;;;;6.60;2.50;;;;;;;40.80;21.58;101172.29;108101;1288;21993;-60
2023/09/25 11:03:31;;;;;;;6.30;2.60;;;;;;;40.82;21.37;101172.38;108096;1285;22007;-66
2023/09/25 11:05:57;;;;;;;5.50;2.50;;;;;;;40.79;21.41;101167.90;108129;1288;21986;-66
2023/09/25 11:08:25;;;;;;;9.20;3.00;;;;;;;40.81;21.26;101167.31;107879;1287;22220;-59